Time;durP1;ratioP1;P1;durP2;ratioP2;P2;SDS_P1;SDS_P2;PMS_P1;PMS_P2;Temp;Humidity;BMP_temperature;BMP_pressure;BME280_temperature;BME280_humidity;BME280_pressure;Samples;Min_cycle;Max_cycle;Signal;HPM_P1;HPM_P2
2023/10/27 00:01:29;;;;;;;67.15;36.25;;;;;;;;;;5088792;28;20030;-89
2023/10/27 00:03:55;;;;;;;60.83;34.72;;;13.20;99.90;;;;;;5089706;28;20063;-90
2023/10/27 00:06:20;;;;;;;57.72;33.15;;;12.80;99.90;;;;;;5089058;28;20052;-85
2023/10/27 00:08:46;;;;;;;51.40;31.55;;;10.50;99.90;;;;;;5088632;28;20040;-91
2023/10/27 00:11:12;;;;;;;72.22;37.58;;;12.10;99.90;;;;;;5088407;28;20030;-84
2023/10/27 00:13:38;;;;;;;71.63;38.53;;;;;;;;;;5088001;28;20062;-85
2023/10/27 00:16:08;;;;;;;70.50;39.17;;;13.10;99.90;;;;;;5088229;28;20016;-92
2023/10/27 00:18:34;;;;;;;70.47;38.58;;;;;;;;;;5089680;28;20028;-87
2023/10/27 00:21:00;;;;;;;125.43;53.35;;;12.70;99.90;;;;;;5089527;28;20032;-91
2023/10/27 00:23:26;;;;;;;112.20;49.25;;;;;;;;;;5087076;28;20024;-90
2023/10/27 00:25:51;;;;;;;91.97;44.50;;;11.00;99.90;;;;;;5090001;28;20115;-91
2023/10/27 00:28:17;;;;;;;118.63;51.53;;;13.00;99.90;;;;;;5089703;28;20027;-93
2023/10/27 00:30:43;;;;;;;116.70;51.33;;;14.80;99.90;;;;;;5089195;28;20028;-85
2023/10/27 00:33:09;;;;;;;119.60;51.58;;;14.00;99.90;;;;;;5089035;28;20533;-87
2023/10/27 00:35:35;;;;;;;125.22;53.30;;;;;;;;;;5089130;28;20036;-88
2023/10/27 00:38:00;;;;;;;127.30;53.67;;;12.90;99.90;;;;;;5080138;28;20111;-92
2023/10/27 00:40:26;;;;;;;128.18;53.65;;;;;;;;;;5069601;28;20027;-87
2023/10/27 00:42:52;;;;;;;117.65;50.65;;;;;;;;;;5089484;28;20392;-89
2023/10/27 00:45:18;;;;;;;136.45;54.05;;;10.70;99.90;;;;;;5073054;28;20034;-92
2023/10/27 00:47:43;;;;;;;140.23;56.63;;;12.40;99.90;;;;;;5080765;28;20108;-94
2023/10/27 00:50:09;;;;;;;131.52;54.90;;;13.50;99.90;;;;;;5093192;28;20048;-91
2023/10/27 00:52:36;;;;;;;130.45;54.75;;;13.30;99.90;;;;;;5087818;28;20493;-85
2023/10/27 00:55:05;;;;;;;119.85;51.67;;;14.20;99.90;;;;;;5073034;28;20024;-88
2023/10/27 00:57:33;;;;;;;130.52;54.67;;;14.20;99.90;;;;;;5082806;28;20020;-89
2023/10/27 00:59:59;;;;;;;103.63;48.45;;;;;;;;;;5093070;28;20066;-92
2023/10/27 01:02:26;;;;;;;107.05;48.58;;;;;;;;;;5092364;28;20028;-91
2023/10/27 01:04:52;;;;;;;126.82;51.53;;;;;;;;;;5092416;28;20416;-92
2023/10/27 01:07:19;;;;;;;105.80;48.65;;;12.80;99.90;;;;;;5091984;28;20034;-88
2023/10/27 01:09:45;;;;;;;149.30;58.30;;;;;;;;;;5092904;28;20027;-89
2023/10/27 01:12:11;;;;;;;145.30;56.95;;;12.50;99.90;;;;;;5091012;28;20028;-90
2023/10/27 01:14:37;;;;;;;123.72;52.40;;;13.70;99.90;;;;;;5091110;28;20031;-89
2023/10/27 01:17:03;;;;;;;149.93;58.17;;;13.20;99.90;;;;;;5091696;28;20035;-87
2023/10/27 01:19:29;;;;;;;145.98;57.28;;;12.40;99.90;;;;;;5091689;28;20028;-89
2023/10/27 01:21:55;;;;;;;142.30;56.88;;;;;;;;;;5092789;28;20493;-92
2023/10/27 01:24:22;;;;;;;143.13;56.97;;;15.30;99.90;;;;;;5091113;28;20089;-91
2023/10/27 01:26:49;;;;;;;144.23;57.10;;;12.90;99.90;;;;;;5091121;28;20131;-90
2023/10/27 01:29:15;;;;;;;144.35;57.45;;;;;;;;;;5092617;28;20016;-91
2023/10/27 01:31:41;;;;;;;147.93;56.13;;;12.40;99.90;;;;;;5092527;28;20032;-90
2023/10/27 01:34:07;;;;;;;155.50;59.45;;;;;;;;;;5092018;28;20020;-93
2023/10/27 01:36:32;;;;;;;135.88;55.47;;;13.70;99.90;;;;;;5091873;28;20050;-92
2023/10/27 01:38:58;;;;;;;138.63;55.42;;;;;;;;;;5090422;28;20025;-83
2023/10/27 01:41:24;;;;;;;129.65;53.05;;;;;;;;;;5090967;28;20024;-90
2023/10/27 01:43:50;;;;;;;114.50;50.72;;;12.20;99.90;;;;;;5092235;28;20020;-92
2023/10/27 01:46:15;;;;;;;124.90;53.45;;;12.60;99.90;;;;;;5092012;28;20039;-91
2023/10/27 01:48:41;;;;;;;133.93;54.42;;;11.40;99.90;;;;;;5091833;28;20076;-90
2023/10/27 01:51:06;;;;;;;154.13;59.80;;;11.90;99.90;;;;;;5091188;28;20024;-87
2023/10/27 01:53:33;;;;;;;149.30;58.25;;;13.30;99.90;;;;;;5091227;28;20387;-88
2023/10/27 01:55:59;;;;;;;133.55;54.75;;;;;;;;;;5092146;28;20021;-85
2023/10/27 01:58:27;;;;;;;141.93;55.45;;;11.90;99.90;;;;;;5092519;28;20503;-90
2023/10/27 02:00:53;;;;;;;85.47;44.30;;;13.60;99.90;;;;;;5092107;28;20031;-91
2023/10/27 02:03:19;;;;;;;130.65;54.30;;;;;;;;;;5091769;28;20055;-87
2023/10/27 02:05:46;;;;;;;158.07;59.80;;;12.40;99.90;;;;;;5091615;28;20040;-89
2023/10/27 02:08:12;;;;;;;157.20;59.13;;;12.90;99.90;;;;;;5091773;28;20012;-89
2023/10/27 02:10:38;;;;;;;156.85;59.95;;;13.60;99.90;;;;;;5090637;28;20081;-90
2023/10/27 02:13:03;;;;;;;74.63;37.75;;;13.60;99.90;;;;;;5070411;28;20063;-90
2023/10/27 02:15:29;;;;;;;128.88;53.72;;;;;;;;;;5085989;28;20483;-91
2023/10/27 02:17:55;;;;;;;149.25;58.22;;;11.70;99.90;;;;;;5090487;28;20032;-84
2023/10/27 02:20:21;;;;;;;147.02;55.97;;;;;;;;;;5091495;28;20495;-91
2023/10/27 02:22:46;;;;;;;138.00;55.63;;;12.30;99.90;;;;;;5089720;28;20024;-90
2023/10/27 02:25:12;;;;;;;137.93;56.25;;;13.10;99.90;;;;;;5090257;28;20032;-92
2023/10/27 02:27:40;;;;;;;140.52;56.15;;;11.60;99.90;;;;;;5091354;28;20082;-92
2023/10/27 02:30:06;;;;;;;;;;;12.70;99.90;;;;;;5090744;28;20024;-88
2023/10/27 02:32:32;;;;;;;157.73;60.15;;;11.50;99.90;;;;;;5091203;28;20027;-91
2023/10/27 02:34:57;;;;;;;139.98;56.05;;;11.00;99.90;;;;;;5091611;28;20476;-90
2023/10/27 02:37:23;;;;;;;107.70;48.88;;;12.20;99.90;;;;;;5090716;28;20117;-84
2023/10/27 02:39:49;;;;;;;126.53;53.33;;;11.70;99.90;;;;;;5091011;28;20024;-92
2023/10/27 02:42:15;;;;;;;141.02;56.40;;;12.90;99.90;;;;;;5089244;28;20032;-93
2023/10/27 02:44:41;;;;;;;141.48;57.53;;;12.70;99.90;;;;;;5090924;28;20028;-93
2023/10/27 02:47:07;;;;;;;138.50;55.28;;;11.30;99.90;;;;;;5090925;28;20111;-90
2023/10/27 02:49:33;;;;;;;139.52;56.00;;;;;;;;;;5090554;28;20111;-85
2023/10/27 02:51:58;;;;;;;125.63;53.08;;;13.00;99.90;;;;;;5091681;28;20024;-90
2023/10/27 02:54:24;;;;;;;142.93;56.13;;;;;;;;;;5090806;28;20047;-88
2023/10/27 02:56:50;;;;;;;139.45;57.22;;;14.10;99.90;;;;;;5089881;28;20082;-92
2023/10/27 02:59:15;;;;;;;117.75;50.97;;;14.00;99.90;;;;;;5090683;28;20086;-88
2023/10/27 03:01:44;;;;;;;111.82;49.70;;;11.70;99.90;;;;;;5090320;28;20553;-88
2023/10/27 03:04:10;;;;;;;118.97;51.97;;;12.10;99.90;;;;;;5090171;28;20039;-88
2023/10/27 03:06:36;;;;;;;120.35;51.33;;;12.50;99.90;;;;;;5090638;28;20495;-90
2023/10/27 03:09:02;;;;;;;113.70;50.17;;;12.40;99.90;;;;;;5091533;28;20019;-89
2023/10/27 03:11:28;;;;;;;116.30;50.17;;;;;;;;;;5088278;28;20456;-89
2023/10/27 03:13:54;;;;;;;150.82;57.90;;;;;;;;;;5090629;28;20051;-91
2023/10/27 03:16:21;;;;;;;135.77;56.10;;;12.90;99.90;;;;;;5089187;28;20114;-90
2023/10/27 03:18:48;;;;;;;127.68;54.92;;;13.20;99.90;;;;;;5090441;28;20492;-89
2023/10/27 03:21:14;;;;;;;114.85;51.75;;;11.40;99.90;;;;;;5090301;28;20040;-90
2023/10/27 03:23:40;;;;;;;142.27;55.83;;;11.40;99.90;;;;;;5090467;28;20099;-89
2023/10/27 03:26:05;;;;;;;135.98;55.20;;;13.90;99.90;;;;;;5088281;28;20047;-90
2023/10/27 03:28:31;;;;;;;116.95;50.50;;;10.00;99.90;;;;;;5082445;28;20162;-90
2023/10/27 03:30:57;;;;;;;130.90;54.03;;;12.10;99.90;;;;;;5068614;28;20028;-88
2023/10/27 03:33:23;;;;;;;114.43;50.58;;;10.70;99.90;;;;;;5069942;28;20333;-92
2023/10/27 03:35:49;;;;;;;139.75;55.40;;;;;;;;;;5069925;28;20048;-92
2023/10/27 03:38:15;;;;;;;120.90;51.92;;;13.10;99.90;;;;;;5069739;28;20058;-89
2023/10/27 03:40:43;;;;;;;117.03;51.22;;;;;;;;;;5069905;28;20127;-87
2023/10/27 03:43:09;;;;;;;112.93;50.13;;;;;;;;;;5086393;28;20043;-84
2023/10/27 03:45:35;;;;;;;133.80;54.42;;;;;;;;;;5083183;28;20028;-84
2023/10/27 03:48:02;;;;;;;140.93;54.72;;;12.10;99.90;;;;;;5081826;28;20069;-90
2023/10/27 03:50:28;;;;;;;137.95;55.42;;;11.60;99.90;;;;;;5078950;28;20036;-92
2023/10/27 03:52:54;;;;;;;27.20;17.73;;;;;;;;;;5074506;28;20020;-91
2023/10/27 03:55:20;;;;;;;38.72;22.63;;;13.20;99.90;;;;;;5072033;28;20036;-89
2023/10/27 03:57:46;;;;;;;119.32;51.88;;;;;;;;;;5075691;28;20502;-86
2023/10/27 04:00:13;;;;;;;133.30;53.65;;;13.20;99.90;;;;;;5075285;28;20104;-87
2023/10/27 04:02:39;;;;;;;97.17;45.67;;;13.30;99.90;;;;;;5075197;28;20503;-90
2023/10/27 04:05:05;;;;;;;113.03;49.92;;;12.50;99.90;;;;;;5073127;28;20081;-86
2023/10/27 04:07:31;;;;;;;105.03;48.47;;;13.20;99.90;;;;;;5072065;28;20032;-88
2023/10/27 04:09:57;;;;;;;120.20;51.67;;;;;;;;;;5083707;28;20167;-93
2023/10/27 04:12:23;;;;;;;113.60;50.40;;;12.90;99.90;;;;;;5073079;28;20407;-89
2023/10/27 04:14:48;;;;;;;110.43;50.50;;;12.80;99.90;;;;;;5076304;28;20024;-91
2023/10/27 04:17:15;;;;;;;124.07;52.50;;;;;;;;;;5078054;28;20028;-90
2023/10/27 04:19:43;;;;;;;107.53;48.35;;;13.10;99.90;;;;;;5076241;28;20767;-91
2023/10/27 04:22:10;;;;;;;128.15;52.83;;;;;;;;;;5076728;28;20402;-90
2023/10/27 04:24:36;;;;;;;116.35;50.80;;;12.50;99.90;;;;;;5089660;28;20118;-86
2023/10/27 04:27:02;;;;;;;108.63;49.65;;;12.90;99.90;;;;;;5087974;28;20133;-87
2023/10/27 04:29:28;;;;;;;120.78;52.25;;;11.80;99.90;;;;;;5073015;28;20024;-87
2023/10/27 04:31:54;;;;;;;135.27;55.45;;;;;;;;;;5087620;28;20458;-85
2023/10/27 04:34:20;;;;;;;114.97;51.25;;;;;;;;;;5086806;28;20020;-90
2023/10/27 04:36:46;;;;;;;137.52;55.97;;;12.80;99.90;;;;;;5084578;28;20032;-91
2023/10/27 04:39:11;;;;;;;129.48;54.78;;;;;;;;;;5082862;28;20492;-89
2023/10/27 04:41:38;;;;;;;115.60;50.55;;;;;;;;;;5076742;28;20028;-86
2023/10/27 04:44:04;;;;;;;124.57;52.28;;;11.80;99.90;;;;;;5082671;28;20016;-90
2023/10/27 04:46:29;;;;;;;123.28;52.38;;;12.50;99.90;;;;;;5077191;28;20054;-89
2023/10/27 04:48:58;;;;;;;128.27;53.95;;;12.30;99.90;;;;;;5083843;28;20027;-92
2023/10/27 04:51:26;;;;;;;128.25;54.78;;;12.90;99.90;;;;;;5076018;28;20047;-90
2023/10/27 04:53:52;;;;;;;93.10;45.93;;;;;;;;;;5084121;28;20508;-90
2023/10/27 04:56:17;;;;;;;114.93;51.75;;;11.90;99.90;;;;;;5087997;28;20308;-86
2023/10/27 04:58:44;;;;;;;108.00;49.50;;;12.80;99.90;;;;;;5092646;28;20388;-87
2023/10/27 05:01:11;;;;;;;104.00;48.38;;;;;;;;;;5093108;28;20024;-91
2023/10/27 05:03:37;;;;;;;78.93;41.70;;;9.40;99.90;;;;;;5092966;28;20020;-86
2023/10/27 05:06:10;;;;;;;93.68;46.05;;;8.80;99.90;;;;;;5091118;28;20067;-88
2023/10/27 05:08:36;;;;;;;94.88;46.67;;;12.20;99.90;;;;;;5094092;28;20161;-83
2023/10/27 05:11:03;;;;;;;106.78;49.28;;;12.00;99.90;;;;;;5092346;28;20024;-82
2023/10/27 05:13:29;;;;;;;110.03;48.70;;;;;;;;;;5092153;28;20031;-89
2023/10/27 05:21:16;;;;;;;113.10;49.35;;;12.00;99.90;;;;;;5779994;22;20595;-83
2023/10/27 05:23:42;;;;;;;95.35;45.85;;;;;;;;;;5052093;28;20483;-80
2023/10/27 05:26:08;;;;;;;97.25;46.33;;;12.80;99.90;;;;;;5050746;28;20120;-81
2023/10/27 05:28:34;;;;;;;105.25;48.08;;;12.00;99.90;;;;;;5050236;28;20059;-85
2023/10/27 05:30:59;;;;;;;111.50;50.72;;;12.70;99.90;;;;;;5049887;28;20025;-84
2023/10/27 05:33:25;;;;;;;103.80;49.10;;;12.20;99.90;;;;;;5051685;28;20543;-86
2023/10/27 05:35:50;;;;;;;120.63;50.65;;;10.80;99.90;;;;;;5050413;28;20021;-87
2023/10/27 05:38:18;;;;;;;99.93;47.97;;;12.40;99.90;;;;;;5051101;28;20021;-83
2023/10/27 05:40:44;;;;;;;104.10;46.30;;;;;;;;;;5049326;28;20048;-82
2023/10/27 05:43:11;;;;;;;130.25;52.50;;;;;;;;;;5051356;28;20033;-81
2023/10/27 05:45:37;;;;;;;120.43;51.25;;;12.30;99.90;;;;;;5047850;28;20381;-82
2023/10/27 05:48:03;;;;;;;120.45;51.47;;;;;;;;;;5049433;28;20087;-83
2023/10/27 05:50:29;;;;;;;124.72;52.90;;;11.90;99.90;;;;;;5049490;28;20065;-84
2023/10/27 05:52:55;;;;;;;131.23;54.15;;;;;;;;;;5049152;28;20075;-84
2023/10/27 05:55:20;;;;;;;132.27;54.42;;;12.30;99.90;;;;;;5036693;28;20590;-81
2023/10/27 05:57:46;;;;;;;127.72;53.75;;;11.90;99.90;;;;;;5039262;28;20045;-86
2023/10/27 06:00:12;;;;;;;109.32;49.25;;;;;;;;;;5049130;28;20421;-83
2023/10/27 06:02:38;;;;;;;122.90;51.30;;;;;;;;;;5049047;28;20443;-81
2023/10/27 06:05:04;;;;;;;114.80;50.90;;;11.80;99.90;;;;;;5047928;28;20041;-81
2023/10/27 06:07:30;;;;;;;121.90;52.47;;;;;;;;;;5047541;28;20514;-83
2023/10/27 06:09:56;;;;;;;108.85;49.85;;;11.60;99.90;;;;;;5047040;28;20119;-82
2023/10/27 06:12:21;;;;;;;94.72;47.67;;;11.70;99.90;;;;;;5048254;28;20040;-81
2023/10/27 06:14:47;;;;;;;114.97;50.20;;;12.30;99.90;;;;;;5049178;28;20029;-81
2023/10/27 06:17:13;;;;;;;102.85;48.42;;;11.80;99.90;;;;;;5049823;28;20064;-81
2023/10/27 06:19:39;;;;;;;115.18;49.65;;;12.30;99.90;;;;;;5049081;28;20029;-86
2023/10/27 06:22:05;;;;;;;97.38;47.00;;;;;;;;;;5049225;28;20055;-84
2023/10/27 06:24:31;;;;;;;100.72;48.63;;;12.00;99.90;;;;;;5048907;28;20091;-82
2023/10/27 06:26:57;;;;;;;101.30;48.42;;;11.80;99.90;;;;;;5049280;28;20457;-85
2023/10/27 06:29:23;;;;;;;130.93;54.97;;;;;;;;;;5048268;28;20483;-82
2023/10/27 06:31:49;;;;;;;124.65;52.63;;;11.00;99.90;;;;;;5047226;28;20040;-80
2023/10/27 06:34:15;;;;;;;134.45;55.03;;;;;;;;;;5047921;28;20458;-83
2023/10/27 06:36:41;;;;;;;135.05;54.20;;;;;;;;;;5061923;28;20028;-82
2023/10/27 06:39:07;;;;;;;124.97;53.00;;;9.90;99.90;;;;;;5046743;28;20021;-85
2023/10/27 06:41:33;;;;;;;114.47;50.45;;;;;;;;;;5049913;28;20021;-87
2023/10/27 06:44:00;;;;;;;119.25;53.67;;;11.90;99.90;;;;;;5049295;28;20511;-83
2023/10/27 06:46:26;;;;;;;133.25;54.75;;;;;;;;;;5047379;28;20052;-81
2023/10/27 06:48:52;;;;;;;115.65;52.20;;;;;;;;;;5048532;28;20024;-86
2023/10/27 06:51:18;;;;;;;134.70;55.80;;;9.90;99.90;;;;;;5045236;28;20029;-82
2023/10/27 06:53:43;;;;;;;122.78;52.53;;;12.10;99.90;;;;;;5048011;28;20075;-83
2023/10/27 06:56:09;;;;;;;120.28;52.13;;;11.70;99.90;;;;;;5045274;28;20029;-80
2023/10/27 06:58:34;;;;;;;123.10;52.08;;;11.10;99.90;;;;;;5048712;28;20373;-85
2023/10/27 07:01:07;;;;;;;125.70;53.55;;;12.60;99.90;;;;;;5048073;28;20021;-86
2023/10/27 07:03:35;;;;;;;131.48;54.72;;;;;;;;;;5048475;28;20415;-84
2023/10/27 07:06:01;;;;;;;10.93;4.30;;;12.30;99.90;;;;;;5045582;28;20063;-85
2023/10/27 07:08:27;;;;;;;77.88;42.03;;;;;;;;;;5047014;28;20052;-83
2023/10/27 07:10:57;;;;;;;119.90;52.20;;;10.90;99.90;;;;;;5049709;28;20068;-87
2023/10/27 07:13:24;;;;;;;129.18;52.50;;;10.80;99.90;;;;;;5048985;28;20047;-84
2023/10/27 07:15:50;;;;;;;119.45;52.65;;;;;;;;;;5047680;28;20112;-82
2023/10/27 07:18:17;;;;;;;129.02;52.92;;;;;;;;;;5049025;28;20021;-81
2023/10/27 07:20:42;;;;;;;123.25;51.88;;;11.10;99.90;;;;;;5048387;28;20488;-83
2023/10/27 07:23:08;;;;;;;128.73;53.38;;;11.40;99.90;;;;;;5047368;28;20033;-84
2023/10/27 07:25:34;;;;;;;131.75;53.35;;;;;;;;;;5048774;28;20036;-83
2023/10/27 07:28:01;;;;;;;127.10;53.75;;;10.80;99.90;;;;;;5048972;28;20045;-82
2023/10/27 07:30:27;;;;;;;123.38;53.58;;;11.60;99.90;;;;;;5048635;28;20082;-86
2023/10/27 07:32:54;;;;;;;125.68;54.28;;;12.40;99.90;;;;;;5048609;28;20021;-81
2023/10/27 07:35:20;;;;;;;111.85;51.00;;;10.80;99.90;;;;;;5048756;28;20028;-85
2023/10/27 07:37:46;;;;;;;112.70;50.30;;;12.40;99.90;;;;;;5047251;28;20031;-85
2023/10/27 07:40:13;;;;;;;62.83;35.53;;;9.60;99.90;;;;;;5049016;28;20029;-82
2023/10/27 07:42:39;;;;;;;112.22;50.05;;;12.90;99.90;;;;;;5048492;28;20145;-83
2023/10/27 07:45:05;;;;;;;108.45;50.25;;;11.90;99.90;;;;;;5048675;28;20111;-84
2023/10/27 07:47:31;;;;;;;119.85;52.55;;;12.60;99.90;;;;;;5048508;28;20040;-85
2023/10/27 07:49:57;;;;;;;113.75;50.28;;;;;;;;;;5048113;28;20428;-85
2023/10/27 07:52:22;;;;;;;113.38;49.75;;;12.40;99.90;;;;;;5048474;28;20484;-83
2023/10/27 07:54:48;;;;;;;91.65;44.08;;;12.70;99.90;;;;;;5046522;28;20029;-85
2023/10/27 07:57:14;;;;;;;89.50;44.50;;;;;;;;;;5047953;28;20013;-83
2023/10/27 07:59:40;;;;;;;86.93;43.83;;;;;;;;;;5047893;28;20032;-83
2023/10/27 08:02:06;;;;;;;92.57;44.85;;;;;;;;;;5046709;28;20103;-84
2023/10/27 08:04:34;;;;;;;72.72;40.55;;;14.70;99.90;;;;;;5046993;28;20483;-82
2023/10/27 08:07:00;;;;;;;;;;;12.50;99.90;;;;;;5046652;28;20439;-86
2023/10/27 08:09:25;;;;;;;102.93;49.22;;;11.50;99.90;;;;;;5045377;28;19909;-85
2023/10/27 08:11:53;;;;;;;90.07;44.35;;;;;;;;;;5044357;28;21665;-84
2023/10/27 08:14:19;;;;;;;89.38;44.88;;;;;;;;;;5052152;28;20025;-83
2023/10/27 08:16:45;;;;;;;86.22;44.13;;;;;;;;;;5057316;28;20082;-83
2023/10/27 08:19:11;;;;;;;81.45;44.55;;;;;;;;;;5062286;28;20167;-86
2023/10/27 08:21:37;;;;;;;104.88;47.63;;;12.20;99.90;;;;;;5047603;28;20029;-85
2023/10/27 08:24:03;;;;;;;73.72;41.08;;;12.80;99.90;;;;;;5046777;28;20029;-84
2023/10/27 08:26:28;;;;;;;81.60;42.83;;;12.70;99.90;;;;;;5047954;28;20040;-85
2023/10/27 08:28:54;;;;;;;91.90;45.05;;;12.40;99.90;;;;;;5046271;28;20114;-81
2023/10/27 08:31:20;;;;;;;86.00;43.85;;;;;;;;;;5047709;28;20033;-82
2023/10/27 08:33:46;;;;;;;73.90;39.28;;;;;;;;;;5048033;28;20472;-82
2023/10/27 08:36:11;;;;;;;82.72;42.17;;;12.80;99.90;;;;;;5048104;28;20028;-81
2023/10/27 08:38:37;;;;;;;79.45;41.95;;;;;;;;;;5045955;28;20029;-82
2023/10/27 08:41:05;;;;;;;110.03;48.05;;;13.80;99.90;;;;;;5028133;28;20055;-81
2023/10/27 08:43:32;;;;;;;102.05;47.88;;;13.90;99.90;;;;;;5049829;28;20032;-82
2023/10/27 08:46:01;;;;;;;108.40;47.60;;;13.60;99.90;;;;;;5062642;28;20523;-83
2023/10/27 08:48:26;;;;;;;86.80;43.75;;;13.60;99.90;;;;;;5047857;28;20021;-82
2023/10/27 08:50:55;;;;;;;98.13;45.53;;;13.00;99.90;;;;;;5046500;28;20033;-81
2023/10/27 08:53:22;;;;;;;75.90;41.13;;;13.40;99.90;;;;;;5047949;28;20018;-83
2023/10/27 08:55:49;;;;;;;85.32;42.67;;;13.60;99.90;;;;;;5046892;28;20068;-83
2023/10/27 08:58:15;;;;;;;36.08;19.33;;;;;;;;;;5047520;28;20017;-81
2023/10/27 09:00:40;;;;;;;62.75;36.13;;;14.50;99.90;;;;;;5045148;28;20392;-83
2023/10/27 09:03:18;;;;;;;79.72;41.20;;;13.40;99.90;;;;;;5037187;28;20030;-83
2023/10/27 09:05:44;;;;;;;;;;;13.70;99.90;;;;;;5031823;28;20037;-86
2023/10/27 09:08:10;;;;;;;81.68;42.65;;;;;;;;;;5048086;28;20470;-81
2023/10/27 09:10:37;;;;;;;78.93;40.90;;;;;;;;;;5051116;28;20028;-82
2023/10/27 09:13:05;;;;;;;71.53;39.15;;;13.50;99.90;;;;;;5049589;28;20037;-84
2023/10/27 09:15:41;;;;;;;61.03;34.58;;;12.40;99.90;;;;;;5051007;28;20554;-82
2023/10/27 09:18:08;;;;;;;63.30;36.40;;;13.10;99.90;;;;;;5050161;28;20408;-83
2023/10/27 09:20:46;;;;;;;63.30;32.47;;;13.80;99.90;;;;;;5050980;28;20017;-82
2023/10/27 09:23:11;;;;;;;53.10;31.80;;;13.30;99.90;;;;;;5050724;28;20040;-81
2023/10/27 09:25:38;;;;;;;16.23;4.43;;;;;;;;;;5050805;28;20045;-83
2023/10/27 09:28:06;;;;;;;29.13;16.88;;;13.80;99.90;;;;;;5050849;28;20025;-82
2023/10/27 09:30:39;;;;;;;64.38;35.47;;;14.20;99.90;;;;;;5051037;28;20029;-84
2023/10/27 09:33:19;;;;;;;52.28;33.20;;;12.30;99.90;;;;;;5050827;28;20025;-82
2023/10/27 09:35:46;;;;;;;59.95;36.33;;;14.70;99.90;;;;;;5048578;28;20029;-80
2023/10/27 09:38:13;;;;;;;59.07;32.73;;;14.10;99.90;;;;;;5051074;28;20048;-82
2023/10/27 09:40:45;;;;;;;76.90;38.20;;;13.70;99.90;;;;;;5050389;28;20565;-85
2023/10/27 09:43:19;;;;;;;33.00;16.30;;;13.80;99.90;;;;;;5046684;28;20124;-83
2023/10/27 09:46:04;;;;;;;27.52;19.20;;;13.90;99.90;;;;;;5049722;28;20120;-84
2023/10/27 09:48:30;;;;;;;32.22;17.13;;;13.90;99.90;;;;;;5049947;28;20021;-85
2023/10/27 09:51:10;;;;;;;34.65;17.80;;;13.80;99.90;;;;;;5048108;28;20067;-83
2023/10/27 09:53:36;;;;;;;40.00;22.27;;;14.20;99.90;;;;;;5049805;28;20054;-86
2023/10/27 09:56:02;;;;;;;41.13;22.85;;;;;;;;;;5048629;28;20055;-85
2023/10/27 09:58:30;;;;;;;36.58;21.48;;;14.00;99.90;;;;;;5049249;28;20021;-85
2023/10/27 10:00:57;;;;;;;22.80;9.80;;;13.60;99.90;;;;;;5042829;28;20480;-87
2023/10/27 10:03:27;;;;;;;22.05;8.48;;;;;;;;;;5049435;28;20029;-83
2023/10/27 10:06:13;;;;;;;24.00;11.32;;;14.00;99.90;;;;;;5049785;28;20043;-84
2023/10/27 10:08:40;;;;;;;21.10;5.18;;;14.20;99.90;;;;;;5040691;28;20028;-90
2023/10/27 10:11:14;;;;;;;26.48;11.95;;;14.40;99.90;;;;;;5049963;28;20033;-83
2023/10/27 10:13:40;;;;;;;30.60;13.80;;;14.20;99.90;;;;;;5048215;28;20079;-85
2023/10/27 10:16:07;;;;;;;29.75;12.80;;;13.20;99.90;;;;;;5049649;28;20084;-88
2023/10/27 10:18:44;;;;;;;29.48;12.95;;;13.60;99.90;;;;;;5047751;28;20525;-86
2023/10/27 10:21:10;;;;;;;28.42;15.82;;;;;;;;;;5049494;28;20036;-88
2023/10/27 10:23:41;;;;;;;28.77;15.70;;;14.00;99.90;;;;;;5049425;28;20115;-87
2023/10/27 10:26:07;;;;;;;36.92;19.65;;;;;;;;;;5049707;28;20431;-86
2023/10/27 10:28:33;;;;;;;39.25;19.38;;;13.30;99.90;;;;;;5048427;28;20066;-87
2023/10/27 10:31:08;;;;;;;37.15;22.52;;;14.90;99.90;;;;;;5048453;28;20031;-86
2023/10/27 10:33:34;;;;;;;27.15;14.55;;;13.30;99.90;;;;;;5049238;28;20444;-87
2023/10/27 10:36:18;;;;;;;41.47;21.85;;;14.50;99.90;;;;;;5050508;28;20028;-86
2023/10/27 10:38:55;;;;;;;38.35;22.60;;;13.30;99.90;;;;;;5050457;28;20025;-86
2023/10/27 10:41:22;;;;;;;14.98;7.63;;;16.70;99.90;;;;;;5051477;28;20028;-85
2023/10/27 10:44:15;;;;;;;19.25;12.52;;;11.90;99.90;;;;;;5047482;28;20037;-87
2023/10/27 10:46:43;;;;;;;39.55;23.48;;;12.00;99.90;;;;;;5047555;28;20041;-86
2023/10/27 10:49:21;;;;;;;40.13;23.90;;;12.00;99.90;;;;;;5049475;28;20025;-86
2023/10/27 10:51:57;;;;;;;36.42;23.80;;;16.20;99.90;;;;;;5049760;28;20458;-87
2023/10/27 10:54:33;;;;;;;158.75;57.75;;;13.30;99.90;;;;;;5050154;28;20029;-91
2023/10/27 10:57:09;;;;;;;197.27;69.65;;;13.90;99.90;;;;;;5049764;28;20025;-88
2023/10/27 10:59:36;;;;;;;121.05;50.80;;;13.70;99.90;;;;;;5049037;28;20108;-89
2023/10/27 11:02:04;;;;;;;506.17;147.05;;;;;;;;;;5048105;28;20068;-86
2023/10/27 11:04:34;;;;;;;445.63;126.65;;;13.60;99.90;;;;;;5049766;28;20062;-86
2023/10/27 11:07:02;;;;;;;419.25;122.80;;;13.60;99.90;;;;;;5048337;28;20089;-85
2023/10/27 11:09:28;;;;;;;318.92;99.57;;;;;;;;;;5049840;28;20025;-84
2023/10/27 11:11:55;;;;;;;344.58;105.25;;;;;;;;;;5049238;28;20037;-91
2023/10/27 11:14:22;;;;;;;82.72;30.67;;;;;;;;;;5047131;28;20489;-84
2023/10/27 11:16:59;;;;;;;273.73;88.25;;;13.60;99.90;;;;;;5047692;28;20028;-84
2023/10/27 11:19:25;;;;;;;204.93;70.53;;;;;;;;;;5050743;28;20021;-81
2023/10/27 11:21:53;;;;;;;256.65;83.53;;;13.40;99.90;;;;;;5048698;28;20359;-84
2023/10/27 11:24:19;;;;;;;268.20;85.88;;;;;;;;;;5048548;28;20017;-81
2023/10/27 11:26:45;;;;;;;124.13;43.95;;;;;;;;;;5049440;28;20037;-83
2023/10/27 11:29:11;;;;;;;207.30;72.07;;;14.00;99.90;;;;;;5047659;28;20029;-84
2023/10/27 11:31:40;;;;;;;210.68;73.30;;;13.10;99.90;;;;;;5049290;28;20029;-83
2023/10/27 11:34:08;;;;;;;221.93;75.47;;;13.00;99.90;;;;;;5048601;28;20079;-83
2023/10/27 11:36:43;;;;;;;203.00;71.18;;;13.00;99.90;;;;;;5047193;28;20060;-85
2023/10/27 11:39:22;;;;;;;220.32;76.75;;;13.50;99.90;;;;;;5044730;28;20041;-83
2023/10/27 11:41:54;;;;;;;;;;;13.60;99.90;;;;;;5047137;28;20554;-84
2023/10/27 11:44:21;;;;;;;214.85;74.32;;;13.60;99.90;;;;;;5048942;28;19908;-85
2023/10/27 11:46:47;;;;;;;192.85;67.95;;;;;;;;;;5046290;28;20036;-84
2023/10/27 11:49:14;;;;;;;185.70;67.47;;;13.50;99.90;;;;;;5047459;28;20032;-84
2023/10/27 11:51:40;;;;;;;192.68;69.60;;;;;;;;;;5047925;28;20098;-84
2023/10/27 11:54:06;;;;;;;181.73;66.20;;;;;;;;;;5048860;28;20411;-84
2023/10/27 11:56:32;;;;;;;247.43;82.45;;;;;;;;;;5049002;28;20052;-86
2023/10/27 11:58:57;;;;;;;243.43;82.30;;;;;;;;;;5045364;28;20033;-84
2023/10/27 12:01:24;;;;;;;175.98;62.97;;;;;;;;;;5049132;28;20400;-86
2023/10/27 12:03:50;;;;;;;205.55;70.90;;;13.00;99.90;;;;;;5047428;28;20496;-85
2023/10/27 12:06:15;;;;;;;207.63;72.07;;;13.00;99.90;;;;;;5048077;28;20107;-86
2023/10/27 12:08:41;;;;;;;194.80;69.28;;;14.20;99.90;;;;;;5046872;28;20085;-85
2023/10/27 12:11:07;;;;;;;213.40;73.93;;;;;;;;;;5047357;28;20050;-84
2023/10/27 12:13:33;;;;;;;225.70;77.45;;;13.70;99.90;;;;;;5048764;28;20170;-83
2023/10/27 12:15:59;;;;;;;226.50;77.53;;;;;;;;;;5047998;28;20392;-84
2023/10/27 12:18:25;;;;;;;219.70;76.30;;;15.50;99.90;;;;;;5049265;28;20017;-85
2023/10/27 12:20:51;;;;;;;127.15;46.60;;;;;;;;;;5048419;28;20032;-84
2023/10/27 12:23:20;;;;;;;210.23;73.78;;;;;;;;;;5048759;28;20044;-84
2023/10/27 12:25:46;;;;;;;215.38;75.60;;;;;;;;;;5047384;28;20041;-84
2023/10/27 12:28:12;;;;;;;189.80;68.15;;;;;;;;;;5048605;28;20056;-83
2023/10/27 12:30:38;;;;;;;158.02;61.80;;;;;;;;;;5047172;28;20064;-87
2023/10/27 12:33:05;;;;;;;99.28;41.75;;;;;;;;;;5044939;28;20473;-86
2023/10/27 12:35:34;;;;;;;140.93;57.35;;;13.90;99.90;;;;;;5045619;28;20102;-83
2023/10/27 12:38:01;;;;;;;153.02;59.35;;;;;;;;;;5052046;28;20013;-83
2023/10/27 12:40:26;;;;;;;147.98;58.95;;;;;;;;;;5052826;28;20027;-85
2023/10/27 12:42:52;;;;;;;149.32;58.88;;;14.60;99.90;;;;;;5052062;28;20100;-85
2023/10/27 12:45:18;;;;;;;168.00;63.35;;;;;;;;;;5052248;28;20040;-85
2023/10/27 12:47:47;;;;;;;160.13;62.45;;;14.10;99.90;;;;;;5035400;28;20041;-84
2023/10/27 12:50:13;;;;;;;159.98;61.92;;;;;;;;;;5059496;28;20028;-86
2023/10/27 12:52:40;;;;;;;119.53;52.20;;;14.30;99.90;;;;;;5052480;28;20029;-92
2023/10/27 12:55:07;;;;;;;198.57;70.53;;;15.10;99.90;;;;;;5052110;28;20024;-85
2023/10/27 12:57:34;;;;;;;142.55;57.80;;;14.40;99.90;;;;;;5049857;28;20067;-85
2023/10/27 13:00:00;;;;;;;11.95;2.90;;;;;;;;;;5049424;28;20057;-84